createdAt,value
2022-11-08T00:00:39.321Z,62.81
2022-11-08T00:03:29.412Z,61.90
2022-11-08T00:06:35.452Z,60.68
2022-11-08T00:09:41.699Z,60.17
2022-11-08T00:12:48.088Z,60.24
2022-11-08T00:15:38.910Z,58.01
2022-11-08T00:18:26.727Z,58.24
2022-11-08T00:21:14.390Z,63.33
2022-11-08T00:24:01.983Z,63.92
2022-11-08T00:26:49.957Z,62.70
2022-11-08T00:29:37.706Z,62.35
2022-11-08T00:32:26.777Z,61.24
2022-11-08T00:35:14.906Z,61.29
2022-11-08T00:38:04.189Z,60.59
2022-11-08T00:40:51.938Z,60.56
2022-11-08T00:43:39.696Z,60.19
2022-11-08T00:46:27.828Z,60.02
2022-11-08T00:49:16.044Z,58.65
2022-11-08T00:52:04.433Z,60.39
2022-11-08T00:54:52.109Z,63.73
2022-11-08T00:57:58.452Z,64.27
2022-11-08T01:00:47.319Z,62.47
2022-11-08T01:03:35.402Z,61.58
2022-11-08T01:06:25.831Z,61.38
2022-11-08T01:09:14.114Z,60.36
2022-11-08T01:12:02.091Z,60.44
2022-11-08T01:14:49.900Z,60.65
2022-11-08T01:17:37.536Z,59.84
2022-11-08T01:20:25.337Z,58.64
2022-11-08T01:23:14.045Z,59.15
2022-11-08T01:26:09.209Z,64.25
2022-11-08T01:28:58.632Z,65.69
2022-11-08T01:31:46.165Z,64.37
2022-11-08T01:34:34.375Z,62.91
2022-11-08T01:37:21.972Z,61.76
2022-11-08T01:40:10.904Z,61.07
2022-11-08T01:42:58.811Z,61.57
2022-11-08T01:46:20.280Z,60.96
2022-11-08T01:49:20.865Z,61.53
2022-11-08T01:52:20.994Z,60.82
2022-11-08T01:55:14.697Z,60.10
2022-11-08T01:58:08.085Z,60.17
2022-11-08T02:00:58.108Z,61.03
2022-11-08T02:03:47.171Z,60.91
2022-11-08T02:06:38.424Z,60.62
2022-11-08T02:09:28.812Z,60.53
2022-11-08T02:12:21.802Z,60.22
2022-11-08T02:15:11.089Z,60.35
2022-11-08T02:17:59.089Z,60.70
2022-11-08T02:21:11.288Z,60.56
2022-11-08T02:24:08.332Z,60.36
2022-11-08T02:26:56.595Z,60.62
2022-11-08T02:29:44.278Z,60.52
2022-11-08T02:32:43.422Z,60.60
2022-11-08T02:35:31.047Z,60.67
2022-11-08T02:38:19.691Z,60.93
2022-11-08T02:41:08.935Z,61.48
2022-11-08T02:43:57.860Z,61.19
2022-11-08T02:46:45.336Z,60.59
2022-11-08T02:49:33.269Z,60.47
2022-11-08T02:52:21.002Z,60.74
2022-11-08T02:55:09.162Z,60.57
2022-11-08T02:57:57.433Z,60.59
2022-11-08T03:00:45.198Z,60.49
2022-11-08T03:03:33.016Z,61.24
2022-11-08T03:06:20.500Z,60.68
2022-11-08T03:09:08.492Z,60.78
2022-11-08T03:11:56.316Z,60.91
2022-11-08T03:14:44.415Z,61.06
2022-11-08T03:17:32.149Z,61.26
2022-11-08T03:20:19.981Z,60.96
2022-11-08T03:23:07.823Z,61.38
2022-11-08T03:25:55.982Z,61.45
2022-11-08T03:28:43.578Z,60.73
2022-11-08T03:31:31.439Z,61.64
2022-11-08T03:34:19.007Z,61.21
2022-11-08T03:37:09.693Z,61.53
2022-11-08T03:39:57.294Z,61.45
2022-11-08T03:42:45.456Z,61.20
2022-11-08T03:45:33.114Z,61.23
2022-11-08T03:48:23.564Z,61.20
2022-11-08T03:51:11.526Z,61.61
2022-11-08T03:53:59.381Z,61.79
2022-11-08T03:56:47.196Z,61.62
2022-11-08T03:59:35.274Z,61.14
2022-11-08T04:02:23.197Z,61.17
2022-11-08T04:05:13.302Z,61.15
2022-11-08T04:08:02.241Z,61.15
2022-11-08T04:10:49.829Z,61.26
2022-11-08T04:13:55.698Z,61.49
2022-11-08T04:16:43.743Z,61.66
2022-11-08T04:19:50.027Z,61.19
2022-11-08T04:22:38.616Z,60.98
2022-11-08T04:25:29.988Z,60.69
2022-11-08T04:28:20.250Z,60.94
2022-11-08T04:31:15.391Z,60.83
2022-11-08T04:34:03.910Z,60.89
2022-11-08T04:36:51.668Z,60.63
2022-11-08T04:39:39.471Z,60.71
2022-11-08T04:42:27.340Z,60.53
2022-11-08T04:45:15.403Z,60.56
2022-11-08T04:48:03.451Z,60.68
2022-11-08T04:50:51.334Z,60.44
2022-11-08T04:53:39.815Z,60.81
2022-11-08T04:56:30.495Z,61.69
2022-11-08T04:59:18.032Z,62.28
2022-11-08T05:02:06.076Z,62.13
2022-11-08T05:04:54.130Z,61.90
2022-11-08T05:07:41.550Z,61.94
2022-11-08T05:10:29.287Z,62.17
2022-11-08T05:13:17.117Z,62.28
2022-11-08T05:16:08.786Z,62.15
2022-11-08T05:18:56.908Z,62.33
2022-11-08T05:22:03.058Z,62.77
2022-11-08T05:24:50.675Z,63.17
2022-11-08T05:27:38.824Z,62.54
2022-11-08T05:30:26.526Z,62.17
2022-11-08T05:33:15.922Z,62.04
2022-11-08T05:36:06.722Z,61.77
2022-11-08T05:38:55.348Z,61.59
2022-11-08T05:41:43.239Z,61.43
2022-11-08T05:44:31.730Z,61.15
2022-11-08T05:47:19.352Z,60.99
2022-11-08T05:50:07.377Z,61.07
2022-11-08T05:52:55.234Z,60.83
2022-11-08T05:55:43.411Z,61.02
2022-11-08T05:58:34.389Z,60.84
2022-11-08T06:01:22.386Z,60.85
2022-11-08T06:04:10.181Z,60.34
2022-11-08T06:06:57.926Z,60.34
2022-11-08T06:09:45.857Z,60.61
2022-11-08T06:12:33.856Z,60.91
2022-11-08T06:15:22.464Z,60.71
2022-11-08T06:18:10.294Z,60.37
2022-11-08T06:20:59.656Z,60.39
2022-11-08T06:23:48.016Z,60.25
2022-11-08T06:26:35.573Z,60.08
2022-11-08T06:29:23.824Z,59.79
2022-11-08T06:32:11.860Z,59.69
2022-11-08T06:34:59.346Z,59.61
2022-11-08T06:37:47.373Z,59.68
2022-11-08T06:40:38.122Z,58.78
2022-11-08T06:43:26.573Z,59.17
2022-11-08T06:46:15.681Z,63.95
2022-11-08T06:49:03.279Z,64.46
2022-11-08T06:51:55.254Z,63.31
2022-11-08T06:54:45.204Z,62.29
2022-11-08T06:57:34.075Z,61.83
2022-11-08T07:00:22.427Z,61.58
2022-11-08T07:03:10.813Z,61.29
2022-11-08T07:06:01.551Z,61.02
2022-11-08T07:08:51.033Z,60.80
2022-11-08T07:11:39.079Z,60.60
2022-11-08T07:14:26.589Z,60.29
2022-11-08T07:17:16.170Z,59.90
2022-11-08T07:20:06.533Z,60.01
2022-11-08T07:22:59.232Z,59.74
2022-11-08T07:25:47.457Z,59.55
2022-11-08T07:28:35.762Z,58.71
2022-11-08T07:31:24.394Z,61.39
2022-11-08T07:34:12.284Z,64.35
2022-11-08T07:37:00.059Z,63.81
2022-11-08T07:39:48.006Z,62.62
2022-11-08T07:43:09.511Z,61.65
2022-11-08T07:45:58.066Z,61.38
2022-11-08T07:48:45.878Z,60.63
2022-11-08T07:51:33.878Z,60.16
2022-11-08T07:54:21.630Z,59.38
2022-11-08T07:57:09.446Z,59.92
2022-11-08T07:59:57.423Z,63.06
2022-11-08T08:02:45.044Z,64.22
2022-11-08T08:05:59.515Z,62.91
2022-11-08T08:08:49.062Z,61.76
2022-11-08T08:11:37.397Z,60.92
2022-11-08T08:14:26.730Z,60.57
2022-11-08T08:17:14.622Z,60.33
2022-11-08T08:20:02.572Z,59.85
2022-11-08T08:22:52.430Z,59.72
2022-11-08T08:25:40.402Z,59.01
2022-11-08T08:28:28.223Z,60.65
2022-11-08T08:31:16.152Z,63.99
2022-11-08T08:34:04.279Z,62.70
2022-11-08T08:36:52.051Z,61.23
2022-11-08T08:39:40.195Z,60.27
2022-11-08T08:42:28.144Z,60.19
2022-11-08T08:45:16.014Z,59.78
2022-11-08T08:48:04.815Z,59.38
2022-11-08T08:50:52.706Z,58.20
2022-11-08T08:53:40.473Z,61.12
2022-11-08T08:56:28.396Z,63.07
2022-11-08T09:02:23.673Z,58.29
2022-11-08T09:05:13.722Z,58.81
2022-11-08T09:08:01.650Z,61.82
2022-11-08T09:10:54.799Z,62.10
2022-11-08T09:13:42.362Z,58.81
2022-11-08T09:16:30.270Z,56.56
2022-11-08T09:19:18.568Z,58.68
2022-11-08T09:22:06.242Z,59.99
2022-11-08T09:24:53.821Z,60.88
2022-11-08T09:27:41.955Z,60.71
2022-11-08T09:30:30.057Z,61.26
2022-11-08T09:33:18.315Z,61.01
2022-11-08T09:36:09.387Z,61.79
2022-11-08T09:38:57.492Z,61.85
2022-11-08T09:41:51.418Z,62.54
2022-11-08T09:45:10.280Z,58.02
2022-11-08T09:48:05.299Z,54.05
2022-11-08T09:50:57.689Z,51.24
2022-11-08T09:54:04.322Z,49.69
2022-11-08T09:56:54.438Z,49.91
2022-11-08T09:59:49.365Z,49.35
2022-11-08T10:02:37.152Z,50.86
2022-11-08T10:05:35.042Z,51.53
2022-11-08T10:08:36.911Z,51.85
2022-11-08T10:11:57.783Z,50.17
2022-11-08T10:15:06.970Z,48.21
2022-11-08T10:18:19.665Z,47.86
2022-11-08T10:21:19.205Z,47.40
2022-11-08T10:24:26.869Z,46.79
2022-11-08T10:27:40.503Z,48.50
2022-11-08T10:30:35.452Z,47.35
2022-11-08T10:33:56.349Z,46.56
2022-11-08T10:36:47.778Z,46.58
2022-11-08T10:39:43.381Z,44.44
2022-11-08T10:43:20.727Z,43.28
2022-11-08T10:46:39.953Z,41.54
2022-11-08T10:49:28.473Z,39.62
2022-11-08T10:52:25.479Z,38.73
2022-11-08T10:55:38.629Z,37.82
2022-11-08T10:58:41.053Z,36.45
2022-11-08T11:01:28.938Z,36.36
2022-11-08T11:04:34.999Z,36.44
2022-11-08T11:08:26.581Z,36.52
2022-11-08T11:11:32.299Z,37.44
2022-11-08T11:14:25.977Z,37.16
2022-11-08T11:20:23.191Z,36.56
2022-11-08T11:23:11.841Z,37.03
2022-11-08T11:25:59.982Z,37.74
2022-11-08T11:29:05.973Z,37.99
2022-11-08T11:31:54.635Z,38.87
2022-11-08T11:35:04.413Z,39.35
2022-11-08T11:37:54.349Z,39.48
2022-11-08T11:40:47.274Z,38.84
2022-11-08T11:43:46.866Z,38.96
2022-11-08T11:46:55.286Z,38.78
2022-11-08T11:49:47.881Z,38.37
2022-11-08T11:52:35.587Z,38.19
2022-11-08T11:55:42.059Z,37.69
2022-11-08T11:59:06.894Z,37.63
2022-11-08T12:02:43.627Z,38.06
2022-11-08T12:06:12.178Z,38.62
2022-11-08T12:09:11.656Z,38.50
2022-11-08T12:12:18.399Z,38.51
2022-11-08T12:15:28.113Z,39.60
2022-11-08T12:18:55.347Z,40.66
2022-11-08T12:22:07.877Z,41.73
2022-11-08T12:25:11.307Z,42.16
2022-11-08T12:28:19.852Z,42.60
2022-11-08T12:31:25.634Z,43.31
2022-11-08T12:34:28.890Z,44.40
2022-11-08T12:37:59.303Z,45.47
2022-11-08T12:41:34.667Z,46.40
2022-11-08T12:44:45.568Z,47.44
2022-11-08T12:48:07.045Z,48.47
2022-11-08T12:51:24.164Z,49.49
2022-11-08T12:54:20.604Z,50.97
2022-11-08T12:57:16.598Z,51.86
2022-11-08T13:00:17.405Z,53.13
2022-11-08T13:03:11.445Z,54.05
2022-11-08T13:06:15.252Z,55.57
2022-11-08T13:09:31.951Z,56.34
2022-11-08T13:12:22.173Z,57.04
2022-11-08T13:15:25.276Z,58.09
2022-11-08T13:18:22.538Z,59.00
2022-11-08T13:21:42.218Z,59.96
2022-11-08T13:24:49.544Z,60.56
2022-11-08T13:27:46.049Z,62.00
2022-11-08T13:30:38.749Z,58.64
2022-11-08T13:33:32.050Z,57.77
2022-11-08T13:36:47.458Z,59.23
2022-11-08T13:39:41.511Z,60.89
2022-11-08T13:42:31.794Z,57.93
2022-11-08T13:45:35.596Z,57.47
2022-11-08T13:48:41.948Z,59.20
2022-11-08T13:51:30.612Z,60.99
2022-11-08T13:54:24.141Z,62.70
2022-11-08T13:57:20.219Z,60.35
2022-11-08T14:00:30.082Z,58.14
2022-11-08T14:03:32.966Z,59.69
2022-11-08T14:06:41.510Z,61.59
2022-11-08T14:09:44.151Z,64.45
2022-11-08T14:12:49.831Z,60.78
2022-11-08T14:15:58.672Z,58.23
2022-11-08T14:18:46.807Z,60.28
2022-11-08T14:21:35.190Z,62.37
2022-11-08T14:24:28.100Z,62.17
2022-11-08T14:27:33.967Z,59.04
2022-11-08T14:30:24.347Z,60.54
2022-11-08T14:33:19.916Z,62.14
2022-11-08T14:36:15.214Z,64.08
2022-11-08T14:39:17.590Z,63.08
2022-11-08T14:42:18.611Z,60.05
2022-11-08T14:45:15.132Z,59.42
2022-11-08T14:48:05.025Z,60.44
2022-11-08T14:51:06.418Z,63.11
2022-11-08T14:53:55.346Z,62.58
2022-11-08T14:56:43.604Z,60.26
2022-11-08T14:59:31.213Z,59.65
2022-11-08T15:02:19.348Z,61.24
2022-11-08T15:05:25.079Z,63.64
2022-11-08T15:08:35.865Z,63.32
2022-11-08T15:11:35.442Z,60.69
2022-11-08T15:14:27.819Z,59.73
2022-11-08T15:17:37.299Z,60.72
2022-11-08T15:20:24.941Z,64.19
2022-11-08T15:23:34.774Z,63.89
2022-11-08T15:26:31.125Z,60.35
2022-11-08T15:29:19.968Z,59.23
2022-11-08T15:32:20.564Z,62.88
2022-11-08T15:35:23.988Z,63.75
2022-11-08T15:38:48.729Z,61.71
2022-11-08T15:41:41.572Z,60.75
2022-11-08T15:44:30.168Z,60.11
2022-11-08T15:47:42.142Z,60.87
2022-11-08T15:50:32.229Z,63.93
2022-11-08T15:53:20.785Z,62.97
2022-11-08T15:56:12.421Z,62.49
2022-11-08T15:59:00.437Z,62.79
2022-11-08T16:02:01.061Z,59.36
2022-11-08T16:05:02.609Z,59.71
2022-11-08T16:07:56.282Z,62.69
2022-11-08T16:10:53.028Z,66.03
2022-11-08T16:13:40.869Z,64.17
2022-11-08T16:16:34.936Z,62.17
2022-11-08T16:19:25.262Z,59.97
2022-11-08T16:22:18.981Z,58.98
2022-11-08T16:25:12.118Z,61.92
2022-11-08T16:28:08.349Z,63.50
2022-11-08T16:30:57.827Z,61.97
2022-11-08T16:33:47.818Z,62.71
2022-11-08T16:36:35.722Z,61.58
2022-11-08T16:39:27.974Z,61.48
2022-11-08T16:42:15.785Z,60.60
2022-11-08T16:45:03.901Z,60.69
2022-11-08T16:47:52.234Z,58.63
2022-11-08T16:50:40.494Z,58.48
2022-11-08T16:53:29.683Z,60.75
2022-11-08T16:56:19.009Z,66.13
2022-11-08T16:59:06.906Z,66.72
2022-11-08T17:01:55.112Z,62.54
2022-11-08T17:04:42.974Z,62.86
2022-11-08T17:07:30.880Z,60.33
2022-11-08T17:10:23.087Z,60.51
2022-11-08T17:13:16.353Z,61.74
2022-11-08T17:16:04.911Z,65.23
2022-11-08T17:18:58.351Z,65.71
2022-11-08T17:21:46.078Z,65.03
2022-11-08T17:24:33.915Z,63.16
2022-11-08T17:27:21.755Z,62.20
2022-11-08T17:30:11.996Z,61.25
2022-11-08T17:33:00.361Z,60.19
2022-11-08T17:35:47.915Z,59.96
2022-11-08T17:38:38.462Z,64.23
2022-11-08T17:41:26.516Z,64.15
2022-11-08T17:44:14.799Z,62.52
2022-11-08T17:47:02.652Z,62.20
2022-11-08T17:49:51.800Z,61.72
2022-11-08T17:52:40.721Z,61.60
2022-11-08T17:55:28.510Z,61.11
2022-11-08T17:58:16.497Z,60.63
2022-11-08T18:01:07.299Z,59.39
2022-11-08T18:03:55.869Z,59.70
2022-11-08T18:06:44.210Z,61.16
2022-11-08T18:09:32.322Z,65.58
2022-11-08T18:12:20.364Z,65.58
2022-11-08T18:15:08.934Z,64.36
2022-11-08T18:17:56.642Z,62.70
2022-11-08T18:20:45.680Z,62.44
2022-11-08T18:23:34.052Z,62.73
2022-11-08T18:26:21.871Z,61.20
2022-11-08T18:29:09.774Z,60.03
2022-11-08T18:31:58.955Z,60.60
2022-11-08T18:34:46.643Z,64.17
2022-11-08T18:37:34.426Z,63.64
2022-11-08T18:40:22.871Z,62.56
2022-11-08T18:43:10.695Z,62.03
2022-11-08T18:46:06.693Z,61.82
2022-11-08T18:48:55.389Z,61.57
2022-11-08T18:51:43.209Z,60.95
2022-11-08T18:54:31.133Z,60.95
2022-11-08T18:57:19.959Z,60.34
2022-11-08T19:00:09.337Z,60.24
2022-11-08T19:02:57.664Z,60.45
2022-11-08T19:05:47.461Z,60.17
2022-11-08T19:08:37.016Z,60.14
2022-11-08T19:11:24.948Z,59.61
2022-11-08T19:14:13.219Z,59.62
2022-11-08T19:17:01.907Z,62.95
2022-11-08T19:19:50.260Z,63.43
2022-11-08T19:22:38.236Z,62.38
2022-11-08T19:25:27.404Z,62.21
2022-11-08T19:28:20.946Z,61.42
2022-11-08T19:31:27.279Z,61.28
2022-11-08T19:34:15.236Z,60.84
2022-11-08T19:37:04.097Z,60.72
2022-11-08T19:39:52.323Z,60.40
2022-11-08T19:42:40.823Z,60.39
2022-11-08T19:45:31.964Z,60.30
2022-11-08T19:48:31.534Z,59.43
2022-11-08T19:51:29.226Z,61.55
2022-11-08T19:54:17.493Z,65.43
2022-11-08T19:57:06.342Z,64.22
2022-11-08T19:59:54.593Z,62.80
2022-11-08T20:02:42.607Z,61.66
2022-11-08T20:05:40.576Z,61.34
2022-11-08T20:08:42.445Z,61.19
2022-11-08T20:11:35.399Z,60.59
2022-11-08T20:14:23.325Z,60.28
2022-11-08T20:17:11.432Z,60.03
2022-11-08T20:20:12.032Z,60.21
2022-11-08T20:23:01.189Z,59.84
2022-11-08T20:25:49.463Z,60.24
2022-11-08T20:28:41.734Z,59.92
2022-11-08T20:31:31.056Z,60.06
2022-11-08T20:34:25.792Z,60.52
2022-11-08T20:37:14.762Z,60.64
2022-11-08T20:40:02.837Z,60.30
2022-11-08T20:42:51.256Z,60.51
2022-11-08T20:45:40.329Z,60.77
2022-11-08T20:48:28.828Z,60.71
2022-11-08T20:51:21.587Z,60.47
2022-11-08T20:54:11.730Z,60.16
2022-11-08T20:56:59.511Z,60.14
2022-11-08T20:59:47.565Z,60.32
2022-11-08T21:02:35.489Z,60.20
2022-11-08T21:05:23.470Z,59.71
2022-11-08T21:11:21.532Z,59.76
2022-11-08T21:14:09.775Z,59.93
2022-11-08T21:20:07.169Z,60.27
2022-11-08T21:22:57.057Z,60.21
2022-11-08T21:25:46.656Z,60.21
2022-11-08T21:28:36.752Z,60.14
2022-11-08T21:31:24.988Z,59.90
2022-11-08T21:34:13.468Z,60.03
2022-11-08T21:37:01.780Z,59.66
2022-11-08T21:39:49.669Z,59.66
2022-11-08T21:42:51.822Z,59.42
2022-11-08T21:45:40.690Z,58.86
2022-11-08T21:48:29.009Z,63.23
2022-11-08T21:51:18.020Z,65.04
2022-11-08T21:54:07.458Z,63.18
2022-11-08T21:56:55.004Z,61.78
2022-11-08T21:59:42.872Z,60.90
2022-11-08T22:02:30.627Z,60.84
2022-11-08T22:05:18.814Z,60.15
2022-11-08T22:08:06.317Z,60.39
2022-11-08T22:10:54.405Z,60.24
2022-11-08T22:13:41.819Z,59.88
2022-11-08T22:16:29.377Z,60.10
2022-11-08T22:19:17.149Z,59.70
2022-11-08T22:22:05.431Z,59.59
2022-11-08T22:24:53.138Z,58.69
2022-11-08T22:27:40.589Z,61.90
2022-11-08T22:30:28.388Z,63.32
2022-11-08T22:33:15.925Z,61.90
2022-11-08T22:36:03.705Z,60.55
2022-11-08T22:38:51.110Z,60.25
2022-11-08T22:41:39.096Z,59.94
2022-11-08T22:44:27.079Z,59.60
2022-11-08T22:47:15.557Z,59.86
2022-11-08T22:50:04.045Z,62.74
2022-11-08T22:52:52.107Z,64.18
2022-11-08T22:55:39.526Z,62.56
2022-11-08T22:58:31.808Z,60.98
2022-11-08T23:01:19.454Z,60.07
2022-11-08T23:04:06.988Z,59.26
2022-11-08T23:06:54.858Z,61.21
2022-11-08T23:09:42.617Z,63.77
2022-11-08T23:12:48.847Z,62.89
2022-11-08T23:15:55.363Z,61.17
2022-11-08T23:19:02.971Z,60.09
2022-11-08T23:22:10.683Z,59.42
2022-11-08T23:24:58.524Z,61.34
2022-11-08T23:28:04.486Z,63.54
2022-11-08T23:31:10.960Z,61.86
2022-11-08T23:33:59.307Z,60.16
2022-11-08T23:36:47.422Z,59.65
2022-11-08T23:39:54.980Z,59.47
2022-11-08T23:43:01.489Z,61.33
2022-11-08T23:45:50.248Z,63.82
2022-11-08T23:48:40.280Z,62.13
2022-11-08T23:51:28.886Z,60.62
2022-11-08T23:54:17.065Z,59.96
2022-11-08T23:57:05.081Z,59.35
2022-11-08T23:59:52.784Z,61.29
